createdAt,value
2018-09-30T00:00:27.702Z,95900
2018-09-30T00:01:30.143Z,95901.5
2018-09-30T00:02:32.571Z,95901.8
2018-09-30T00:03:34.455Z,95898.1
2018-09-30T00:04:36.606Z,95900.2
2018-09-30T00:05:39.042Z,95903.6
2018-09-30T00:06:41.206Z,95901.8
2018-09-30T00:07:43.627Z,95901.6
2018-09-30T00:08:45.791Z,95902.5
2018-09-30T00:09:48.265Z,95904.9
2018-09-30T00:10:50.684Z,95898.4
2018-09-30T00:11:52.568Z,95897.9
2018-09-30T00:12:54.729Z,95898.2
2018-09-30T00:13:57.174Z,95896.9
2018-09-30T00:14:59.600Z,95895
2018-09-30T00:16:02.039Z,95893.1
2018-09-30T00:17:04.478Z,95890.4
2018-09-30T00:18:06.912Z,95894
2018-09-30T00:19:09.347Z,95895.8
2018-09-30T00:20:11.779Z,95892
2018-09-30T00:21:14.207Z,95891.2
2018-09-30T00:22:16.648Z,95889.7
2018-09-30T00:23:19.085Z,95890.2
2018-09-30T00:24:21.266Z,95889.9
2018-09-30T00:25:23.415Z,95886.7
2018-09-30T00:26:25.845Z,95889.4
2018-09-30T00:27:28.280Z,95892.1
2018-09-30T00:28:30.162Z,95894.3
2018-09-30T00:29:32.326Z,95891.5
2018-09-30T00:30:34.760Z,95893.3
2018-09-30T00:31:36.908Z,95893.8
2018-09-30T00:32:39.056Z,95890.8
2018-09-30T00:33:41.493Z,95889.2
2018-09-30T00:34:43.662Z,95890
2018-09-30T00:35:45.826Z,95887.7
2018-09-30T00:36:48.247Z,95888.6
2018-09-30T00:37:50.380Z,95887.1
2018-09-30T00:38:52.533Z,95888.2
2018-09-30T00:39:54.956Z,95885.6
2018-09-30T00:40:57.130Z,95887.3
2018-09-30T00:41:59.277Z,95885.2
2018-09-30T00:43:01.704Z,95885.2
2018-09-30T00:44:03.589Z,95883.4
2018-09-30T00:45:06.027Z,95880.3
2018-09-30T00:46:08.196Z,95878.7
2018-09-30T00:47:10.626Z,95880.1
2018-09-30T00:48:12.797Z,95874.1
2018-09-30T00:49:15.223Z,95871.9
2018-09-30T00:50:16.843Z,95874.6
2018-09-30T00:51:19.272Z,95873.9
2018-09-30T00:52:21.742Z,95875.9
2018-09-30T00:53:23.618Z,95875
2018-09-30T00:54:26.049Z,95875.8
2018-09-30T00:55:28.492Z,95874.3
2018-09-30T00:56:30.931Z,95874.6
2018-09-30T00:57:33.087Z,95871.8
2018-09-30T00:58:35.247Z,95872.9
2018-09-30T00:59:37.396Z,95873.3
2018-09-30T01:00:39.823Z,95874.8
2018-09-30T01:01:42.260Z,95872.5
2018-09-30T01:02:44.683Z,95873.2
2018-09-30T01:03:46.829Z,95873.3
2018-09-30T01:04:48.959Z,95872.5
2018-09-30T01:05:51.386Z,95874.7
2018-09-30T01:06:53.815Z,95874.8
2018-09-30T01:07:56.242Z,95873.7
2018-09-30T01:08:58.675Z,95873
2018-09-30T01:10:01.105Z,95874.2
2018-09-30T01:11:03.540Z,95872.4
2018-09-30T01:12:05.961Z,95869.9
2018-09-30T01:13:08.397Z,95872.6
2018-09-30T01:14:10.293Z,95871.5
2018-09-30T01:15:12.713Z,95870.8
2018-09-30T01:16:14.885Z,95868.5
2018-09-30T01:17:17.316Z,95868.2
2018-09-30T01:18:19.462Z,95865.9
2018-09-30T01:19:21.899Z,95862.4
2018-09-30T01:20:24.334Z,95863.9
2018-09-30T01:21:26.769Z,95864
2018-09-30T01:22:28.935Z,95860.6
2018-09-30T01:23:31.093Z,95862.6
2018-09-30T01:24:33.517Z,95861.7
2018-09-30T01:25:35.676Z,95863.3
2018-09-30T01:26:43.613Z,95862.7
2018-09-30T01:27:45.790Z,95864
2018-09-30T01:28:48.217Z,95858.2
2018-09-30T01:29:50.649Z,95859.2
2018-09-30T01:30:52.799Z,95858.8
2018-09-30T01:31:54.962Z,95855.9
2018-09-30T01:32:57.389Z,95855.1
2018-09-30T01:33:59.544Z,95857.3
2018-09-30T01:35:01.978Z,95856.5
2018-09-30T01:36:03.877Z,95858.9
2018-09-30T01:37:05.768Z,95856.9
2018-09-30T01:38:08.197Z,95854.1
2018-09-30T01:39:10.329Z,95851.7
2018-09-30T01:40:12.762Z,95850.5
2018-09-30T01:41:14.909Z,95848.7
2018-09-30T01:42:17.347Z,95855.2
2018-09-30T01:43:19.505Z,95851.3
2018-09-30T01:44:21.677Z,95853.5
2018-09-30T01:45:24.108Z,95852.9
2018-09-30T01:46:26.265Z,95852.1
2018-09-30T01:47:28.428Z,95851.6
2018-09-30T01:48:30.852Z,95852.4
2018-09-30T01:49:33.295Z,95848.4
2018-09-30T01:50:35.731Z,95845
2018-09-30T01:51:38.165Z,95850.8
2018-09-30T01:52:40.590Z,95845.1
2018-09-30T01:53:43.013Z,95844.3
2018-09-30T01:54:45.443Z,95842.9
2018-09-30T01:55:47.311Z,95844.4
2018-09-30T01:56:49.199Z,95842.8
2018-09-30T01:57:51.629Z,95840.4
2018-09-30T01:58:54.065Z,95838.2
2018-09-30T01:59:56.499Z,95842.3
2018-09-30T02:00:58.928Z,95842.8
2018-09-30T02:02:01.354Z,95839.4
2018-09-30T02:03:03.789Z,95842.2
2018-09-30T02:04:06.228Z,95840.8
2018-09-30T02:05:08.657Z,95835.2
2018-09-30T02:06:11.085Z,95833.5
2018-09-30T02:07:13.517Z,95830.5
2018-09-30T02:08:15.941Z,95834.7
2018-09-30T02:09:18.375Z,95839.4
2018-09-30T02:10:20.804Z,95838.7
2018-09-30T02:11:22.424Z,95841.1
2018-09-30T02:12:24.853Z,95835.1
2018-09-30T02:13:27.022Z,95835.4
2018-09-30T02:14:29.176Z,95839.8
2018-09-30T02:15:31.350Z,95835.7
2018-09-30T02:16:33.250Z,95835.7
2018-09-30T02:17:35.691Z,95840.7
2018-09-30T02:18:38.116Z,95840.8
2018-09-30T02:19:40.550Z,95836.3
2018-09-30T02:20:42.972Z,95835.8
2018-09-30T02:21:45.405Z,95835.3
2018-09-30T02:22:47.547Z,95833.9
2018-09-30T02:23:49.716Z,95832.5
2018-09-30T02:24:51.860Z,95827.7
2018-09-30T02:25:54.298Z,95826.8
2018-09-30T02:26:56.747Z,95828.3
2018-09-30T02:27:59.187Z,95823.5
2018-09-30T02:29:00.795Z,95827
2018-09-30T02:30:03.249Z,95829.7
2018-09-30T02:31:05.121Z,95826.5
2018-09-30T02:32:07.550Z,95823.7
2018-09-30T02:33:09.685Z,95824.1
2018-09-30T02:34:12.125Z,95828
2018-09-30T02:35:14.275Z,95828.7
2018-09-30T02:36:16.716Z,95831.4
2018-09-30T02:37:18.330Z,95832
2018-09-30T02:38:20.761Z,95830.7
2018-09-30T02:39:22.638Z,95829.7
2018-09-30T02:40:24.776Z,95828
2018-09-30T02:41:26.939Z,95832
2018-09-30T02:42:29.107Z,95829.3
2018-09-30T02:43:31.336Z,95833.3
2018-09-30T02:44:33.485Z,95829.3
2018-09-30T02:45:35.946Z,95829
2018-09-30T02:46:37.807Z,95826.3
2018-09-30T02:47:39.962Z,95827.1
2018-09-30T02:48:42.394Z,95825.8
2018-09-30T02:49:44.564Z,95825.9
2018-09-30T02:50:47.038Z,95827.9
2018-09-30T02:51:49.461Z,95825.3
2018-09-30T02:52:51.890Z,95825.6
2018-09-30T02:53:54.323Z,95823.8
2018-09-30T02:54:56.753Z,95821.7
2018-09-30T02:55:59.172Z,95819.2
2018-09-30T02:57:01.606Z,95821.4
2018-09-30T02:58:03.767Z,95816.4
2018-09-30T02:59:06.192Z,95822.5
2018-09-30T03:00:08.616Z,95821.5
2018-09-30T03:01:10.503Z,95823.1
2018-09-30T03:02:12.660Z,95821.2
2018-09-30T03:03:14.807Z,95823.1
2018-09-30T03:04:16.701Z,95821.6
2018-09-30T03:05:19.133Z,95824.9
2018-09-30T03:06:21.570Z,95824.1
2018-09-30T03:07:23.700Z,95814.5
2018-09-30T03:08:25.864Z,95815.1
2018-09-30T03:09:28.023Z,95813.2
2018-09-30T03:10:30.457Z,95810.2
2018-09-30T03:11:32.896Z,95806.9
2018-09-30T03:12:35.357Z,95808.5
2018-09-30T03:13:37.265Z,95805.9
2018-09-30T03:14:39.687Z,95806.7
2018-09-30T03:15:42.121Z,95805.4
2018-09-30T03:16:44.282Z,95806.1
2018-09-30T03:17:46.446Z,95805.7
2018-09-30T03:18:48.875Z,95810.6
2018-09-30T03:19:51.309Z,95809.8
2018-09-30T03:20:53.731Z,95806
2018-09-30T03:21:56.155Z,95799.9
2018-09-30T03:22:58.040Z,95799.9
2018-09-30T03:24:00.465Z,95800.5
2018-09-30T03:25:02.639Z,95795.2
2018-09-30T03:26:05.079Z,95797.5
2018-09-30T03:27:07.504Z,95791.5
2018-09-30T03:28:09.938Z,95793.1
2018-09-30T03:29:12.357Z,95786.9
2018-09-30T03:30:14.252Z,95789.8
2018-09-30T03:31:16.682Z,95788.7
2018-09-30T03:32:19.113Z,95793.2
2018-09-30T03:33:21.557Z,95791
2018-09-30T03:34:23.717Z,95792.3
2018-09-30T03:35:26.147Z,95791.5
2018-09-30T03:36:28.012Z,95788.5
2018-09-30T03:37:30.459Z,95792.4
2018-09-30T03:38:32.880Z,95792.1
2018-09-30T03:39:35.170Z,95789.7
2018-09-30T03:40:37.804Z,95786.6
2018-09-30T03:41:40.242Z,95787.4
2018-09-30T03:42:42.688Z,95790.2
2018-09-30T03:43:45.177Z,95789.2
2018-09-30T03:44:47.323Z,95786.3
2018-09-30T03:45:49.758Z,95789.4
2018-09-30T03:46:51.925Z,95788.4
2018-09-30T03:47:54.366Z,95786
2018-09-30T03:48:56.807Z,95783
2018-09-30T03:49:58.965Z,95785.8
2018-09-30T03:51:01.396Z,95785.1
2018-09-30T03:52:03.825Z,95787.8
2018-09-30T03:53:06.255Z,95785.4
2018-09-30T03:54:08.415Z,95785.8
2018-09-30T03:55:10.565Z,95783
2018-09-30T03:56:12.989Z,95785.9
2018-09-30T03:57:15.423Z,95785.8
2018-09-30T03:58:17.580Z,95785.9
2018-09-30T03:59:19.744Z,95787.7
2018-09-30T04:00:22.176Z,95789.7
2018-09-30T04:01:24.604Z,95791.4
2018-09-30T04:02:26.784Z,95792.2
2018-09-30T04:03:29.234Z,95789.6
2018-09-30T04:04:31.377Z,95789.4
2018-09-30T04:05:33.525Z,95787.4
2018-09-30T04:06:35.961Z,95789.4
2018-09-30T04:07:38.117Z,95785.8
2018-09-30T04:08:40.610Z,95785
2018-09-30T04:09:43.540Z,95782.1
2018-09-30T04:10:46.254Z,95785.8
2018-09-30T04:11:48.414Z,95783
2018-09-30T04:12:50.861Z,95782.6
2018-09-30T04:13:53.282Z,95781.5
2018-09-30T04:14:55.174Z,95781.7
2018-09-30T04:15:57.611Z,95780
2018-09-30T04:17:00.487Z,95780
2018-09-30T04:18:03.101Z,95776.8
2018-09-30T04:19:05.536Z,95771.5
2018-09-30T04:20:07.975Z,95768.1
2018-09-30T04:21:10.418Z,95767.9
2018-09-30T04:22:12.304Z,95760.2
2018-09-30T04:23:14.745Z,95762.5
2018-09-30T04:24:16.911Z,95756.9
2018-09-30T04:25:19.338Z,95756.6
2018-09-30T04:26:21.522Z,95756.2
2018-09-30T04:27:23.950Z,95758
2018-09-30T04:28:26.394Z,95756.2
2018-09-30T04:29:28.823Z,95748
2018-09-30T04:30:31.259Z,95754.8
2018-09-30T04:31:33.686Z,95750.4
2018-09-30T04:32:36.116Z,95749.7
2018-09-30T04:33:38.571Z,95754.9
2018-09-30T04:34:40.742Z,95753.6
2018-09-30T04:35:42.890Z,95753.4
2018-09-30T04:36:45.068Z,95753.6
2018-09-30T04:37:47.488Z,95756.7
2018-09-30T04:38:49.399Z,95752.3
2018-09-30T04:39:51.843Z,95753.1
2018-09-30T04:40:54.276Z,95754.7
2018-09-30T04:41:56.706Z,95750.8
2018-09-30T04:42:59.136Z,95746.8
2018-09-30T04:44:01.558Z,95754.1
2018-09-30T04:45:03.719Z,95757.7
2018-09-30T04:46:05.869Z,95755.6
2018-09-30T04:47:08.021Z,95756.2
2018-09-30T04:48:10.446Z,95755.4
2018-09-30T04:49:12.880Z,95755.4
2018-09-30T04:50:15.309Z,95756
2018-09-30T04:51:17.733Z,95760.2
2018-09-30T04:52:20.170Z,95758.5
2018-09-30T04:53:22.330Z,95754
2018-09-30T04:54:24.498Z,95754.7
2018-09-30T04:55:26.939Z,95756
2018-09-30T04:56:29.096Z,95752.9
2018-09-30T04:57:31.526Z,95754.1
2018-09-30T04:58:33.684Z,95751
2018-09-30T04:59:35.844Z,95747.9
2018-09-30T05:00:38.010Z,95747.3
2018-09-30T05:01:40.442Z,95745.3
2018-09-30T05:02:42.604Z,95749.5
2018-09-30T05:03:45.036Z,95751.3
2018-09-30T05:04:47.197Z,95751.5
2018-09-30T05:05:49.582Z,95749.4
2018-09-30T05:06:51.861Z,95747.6
2018-09-30T05:07:54.292Z,95753.9
2018-09-30T05:08:56.720Z,95756.4
2018-09-30T05:09:59.156Z,95749.5
2018-09-30T05:11:01.607Z,95751.6
2018-09-30T05:12:03.493Z,95755.4
2018-09-30T05:13:05.365Z,95753
2018-09-30T05:14:07.807Z,95758.3
2018-09-30T05:15:10.232Z,95755.4
2018-09-30T05:16:12.893Z,95758.4
2018-09-30T05:17:15.310Z,95751.8
2018-09-30T05:18:17.752Z,95750.9
2018-09-30T05:19:19.646Z,95747.7
2018-09-30T05:20:22.084Z,95747.5
2018-09-30T05:21:24.529Z,95746.7
2018-09-30T05:22:26.957Z,95749.8
2018-09-30T05:23:28.830Z,95744.9
2018-09-30T05:24:31.256Z,95741.8
2018-09-30T05:25:33.773Z,95744.1
2018-09-30T05:26:36.212Z,95739.4
2018-09-30T05:27:38.643Z,95740.6
2018-09-30T05:28:40.780Z,95739.8
2018-09-30T05:29:42.922Z,95738.7
2018-09-30T05:30:45.093Z,95740.9
2018-09-30T05:31:47.236Z,95742.8
2018-09-30T05:32:49.394Z,95743.4
2018-09-30T05:33:51.825Z,95740
2018-09-30T05:34:54.247Z,95741.5
2018-09-30T05:35:56.438Z,95737.5
2018-09-30T05:36:58.922Z,95743
2018-09-30T05:38:01.339Z,95740.4
2018-09-30T05:39:03.214Z,95735.9
2018-09-30T05:40:05.374Z,95739.5
2018-09-30T05:41:07.794Z,95738.4
2018-09-30T05:42:10.228Z,95744.4
2018-09-30T05:43:12.403Z,95742.9
2018-09-30T05:44:14.826Z,95742.1
2018-09-30T05:45:17.273Z,95744.3
2018-09-30T05:46:19.708Z,95742.2
2018-09-30T05:47:22.154Z,95744.2
2018-09-30T05:48:24.577Z,95742.6
2018-09-30T05:49:27.019Z,95744.6
2018-09-30T05:50:29.205Z,95741.2
2018-09-30T05:51:31.361Z,95741.3
2018-09-30T05:52:33.797Z,95742.3
2018-09-30T05:53:36.221Z,95742.8
2018-09-30T05:54:38.646Z,95744.9
2018-09-30T05:55:40.807Z,95745.3
2018-09-30T05:56:43.244Z,95744.6
2018-09-30T05:57:46.078Z,95745.9
2018-09-30T05:58:48.535Z,95753.4
2018-09-30T05:59:50.960Z,95745.6
2018-09-30T06:00:53.384Z,95746
2018-09-30T06:01:55.546Z,95752.1
2018-09-30T06:02:57.717Z,95745.5
2018-09-30T06:04:00.102Z,95750.8
2018-09-30T06:05:02.628Z,95745.6
2018-09-30T06:06:05.056Z,95746.6
2018-09-30T06:07:07.484Z,95745.4
2018-09-30T06:08:09.679Z,95740.7
2018-09-30T06:09:12.267Z,95746.4
2018-09-30T06:10:15.081Z,95743.9
2018-09-30T06:11:16.942Z,95743.3
2018-09-30T06:12:19.158Z,95746.1
2018-09-30T06:13:21.348Z,95742.8
2018-09-30T06:14:24.059Z,95740.5
2018-09-30T06:15:26.215Z,95740.1
2018-09-30T06:16:28.387Z,95737.9
2018-09-30T06:17:30.870Z,95737.7
2018-09-30T06:18:33.294Z,95740
2018-09-30T06:19:35.721Z,95737.5
2018-09-30T06:20:38.155Z,95737.3
2018-09-30T06:21:40.640Z,95739
2018-09-30T06:22:42.516Z,95735.4
2018-09-30T06:23:44.952Z,95737.9
2018-09-30T06:24:47.083Z,95736.3
2018-09-30T06:25:49.522Z,95735.5
2018-09-30T06:26:51.957Z,95731.5
2018-09-30T06:27:54.396Z,95731.7
2018-09-30T06:28:56.820Z,95731.1
2018-09-30T06:29:58.162Z,95729.5
2018-09-30T06:31:00.600Z,95726.1
2018-09-30T06:32:02.971Z,95728.2
2018-09-30T06:33:05.204Z,95723.2
2018-09-30T06:34:07.345Z,95725.2
2018-09-30T06:35:09.230Z,95723.8
2018-09-30T06:36:11.676Z,95722.5
2018-09-30T06:37:13.722Z,95723.5
2018-09-30T06:38:16.235Z,95716.2
2018-09-30T06:39:18.682Z,95721.9
2018-09-30T06:40:21.363Z,95723.1
2018-09-30T06:41:23.833Z,95721.3
2018-09-30T06:42:26.256Z,95720.4
2018-09-30T06:43:28.387Z,95723.9
2018-09-30T06:44:30.817Z,95722.9
2018-09-30T06:45:33.470Z,95723.5
2018-09-30T06:46:36.148Z,95720.9
2018-09-30T06:47:38.689Z,95721.4
2018-09-30T06:48:40.572Z,95722.4
2018-09-30T06:49:42.724Z,95718.9
2018-09-30T06:50:45.203Z,95726.2
2018-09-30T06:51:47.766Z,95723.3
2018-09-30T06:52:49.664Z,95724.9
2018-09-30T06:53:51.792Z,95727.6
2018-09-30T06:54:54.266Z,95723.5
2018-09-30T06:55:56.694Z,95724
2018-09-30T06:56:59.134Z,95727.8
2018-09-30T06:58:01.578Z,95726.6
2018-09-30T06:59:03.740Z,95727.1
2018-09-30T07:00:06.168Z,95727.1
2018-09-30T07:01:08.323Z,95726
2018-09-30T07:02:10.763Z,95726.3
2018-09-30T07:03:13.195Z,95726.5
2018-09-30T07:04:15.622Z,95722.7
2018-09-30T07:05:17.807Z,95728.5
2018-09-30T07:06:19.975Z,95725.6
2018-09-30T07:07:22.397Z,95722.7
2018-09-30T07:08:24.899Z,95726.3
2018-09-30T07:09:26.852Z,95724.5
2018-09-30T07:10:29.036Z,95722.1
2018-09-30T07:11:31.209Z,95721.6
2018-09-30T07:12:33.388Z,95722.9
2018-09-30T07:13:35.812Z,95720.6
2018-09-30T07:14:37.973Z,95719.7
2018-09-30T07:15:40.434Z,95722.7
2018-09-30T07:16:42.390Z,95714.5
2018-09-30T07:17:44.615Z,95713.5
2018-09-30T07:18:46.531Z,95714
2018-09-30T07:19:48.960Z,95715.8
2018-09-30T07:20:51.388Z,95715.4
2018-09-30T07:21:53.871Z,95713.8
2018-09-30T07:22:56.297Z,95713.4
2018-09-30T07:23:58.165Z,95714.9
2018-09-30T07:25:00.074Z,95714.4
2018-09-30T07:26:02.525Z,95713.9
2018-09-30T07:27:04.971Z,95712.2
2018-09-30T07:28:07.134Z,95713.2
2018-09-30T07:29:09.561Z,95711.4
2018-09-30T07:30:12.006Z,95711.1
2018-09-30T07:31:14.453Z,95714.2
2018-09-30T07:32:16.908Z,95711.7
2018-09-30T07:33:19.340Z,95717.6
2018-09-30T07:34:21.618Z,95717.7
2018-09-30T07:35:24.174Z,95719.3
2018-09-30T07:36:26.167Z,95719.1
2018-09-30T07:37:28.638Z,95718.6
2018-09-30T07:38:31.062Z,95719.4
2018-09-30T07:39:33.570Z,95718.3
2018-09-30T07:40:36.165Z,95720.4
2018-09-30T07:41:38.622Z,95721
2018-09-30T07:42:41.060Z,95718
2018-09-30T07:43:43.496Z,95718.4
2018-09-30T07:44:45.928Z,95721.1
2018-09-30T07:45:48.097Z,95713.3
2018-09-30T07:46:50.999Z,95712.3
2018-09-30T07:47:53.571Z,95717.7
2018-09-30T07:48:55.728Z,95716.9
2018-09-30T07:49:58.175Z,95714
2018-09-30T07:51:00.612Z,95714.7
2018-09-30T07:52:03.045Z,95711.4
2018-09-30T07:53:05.210Z,95708.7
2018-09-30T07:54:07.643Z,95709
2018-09-30T07:55:10.077Z,95711.9
2018-09-30T07:56:12.503Z,95711.8
2018-09-30T07:57:14.395Z,95706.5
2018-09-30T07:58:16.548Z,95705.6
2018-09-30T07:59:18.765Z,95708.9
2018-09-30T08:00:21.212Z,95701.1
2018-09-30T08:01:23.365Z,95701.4
2018-09-30T08:02:25.529Z,95698.8
2018-09-30T08:03:27.975Z,95699.5
2018-09-30T08:04:30.399Z,95702.3
2018-09-30T08:05:32.865Z,95704.7
2018-09-30T08:06:35.417Z,95698.6
2018-09-30T08:07:37.844Z,95698
2018-09-30T08:08:40.289Z,95701.7
2018-09-30T08:09:42.443Z,95699.9
2018-09-30T08:10:44.631Z,95700.8
2018-09-30T08:11:47.065Z,95701.2
2018-09-30T08:12:49.202Z,95700.5
2018-09-30T08:13:51.642Z,95697.1
2018-09-30T08:14:54.088Z,95700.5
2018-09-30T08:15:56.524Z,95696
2018-09-30T08:16:59.151Z,95698.1
2018-09-30T08:18:01.745Z,95698.6
2018-09-30T08:19:03.933Z,95698.2
2018-09-30T08:20:06.082Z,95702.4
2018-09-30T08:21:08.529Z,95700.7
2018-09-30T08:22:10.682Z,95700.1
2018-09-30T08:23:13.128Z,95700.5
2018-09-30T08:24:15.879Z,95699.4
2018-09-30T08:25:18.511Z,95700.5
2018-09-30T08:26:20.949Z,95698.2
2018-09-30T08:27:23.106Z,95693.9
2018-09-30T08:28:25.599Z,95700.4
2018-09-30T08:29:27.767Z,95695.1
2018-09-30T08:30:30.212Z,95698.3
2018-09-30T08:31:32.654Z,95696.5
2018-09-30T08:32:34.817Z,95696.8
2018-09-30T08:33:37.255Z,95695.6
2018-09-30T08:34:39.424Z,95699.6
2018-09-30T08:35:41.866Z,95698.9
2018-09-30T08:36:44.016Z,95701.9
2018-09-30T08:37:46.456Z,95700.2
2018-09-30T08:38:48.618Z,95699.2
2018-09-30T08:39:51.681Z,95704
2018-09-30T08:40:54.401Z,95703.2
2018-09-30T08:41:56.579Z,95708.4
2018-09-30T08:42:59.027Z,95701.1
2018-09-30T08:44:01.233Z,95707.4
2018-09-30T08:45:03.429Z,95701.4
2018-09-30T08:46:05.867Z,95698.3
2018-09-30T08:47:08.463Z,95703.3
2018-09-30T08:48:10.955Z,95703.1
2018-09-30T08:49:13.291Z,95701.6
2018-09-30T08:50:15.814Z,95704.9
2018-09-30T08:51:18.357Z,95704.6
2018-09-30T08:52:20.819Z,95703.5
2018-09-30T08:53:22.984Z,95701.2
2018-09-30T08:54:25.423Z,95700.4
2018-09-30T08:55:27.868Z,95702.2
2018-09-30T08:56:29.776Z,95700.3
2018-09-30T08:57:32.215Z,95701.1
2018-09-30T08:58:34.654Z,95699.9
2018-09-30T08:59:36.244Z,95698.1
2018-09-30T09:00:38.686Z,95698.2
2018-09-30T09:01:41.114Z,95697.3
2018-09-30T09:02:43.269Z,95696.2
2018-09-30T09:03:45.706Z,95691.7
2018-09-30T09:04:48.134Z,95695.1
2018-09-30T09:05:50.585Z,95695.1
2018-09-30T09:06:53.026Z,95692.8
2018-09-30T09:07:55.460Z,95697.2
2018-09-30T09:08:57.941Z,95696.3
2018-09-30T09:10:00.414Z,95700.8
2018-09-30T09:11:02.848Z,95692.8
2018-09-30T09:12:05.316Z,95692.6
2018-09-30T09:13:07.756Z,95691.6
2018-09-30T09:14:10.199Z,95692.7
2018-09-30T09:15:12.622Z,95690
2018-09-30T09:16:14.476Z,95692.3
2018-09-30T09:17:16.343Z,95693
2018-09-30T09:18:18.777Z,95691.7
2018-09-30T09:19:21.218Z,95689.6
2018-09-30T09:20:23.656Z,95683
2018-09-30T09:21:26.088Z,95683.9
2018-09-30T09:22:29.073Z,95682.7
2018-09-30T09:23:31.671Z,95681.9
2018-09-30T09:24:34.114Z,95682.2
2018-09-30T09:25:36.284Z,95679.5
2018-09-30T09:26:38.712Z,95668.6
2018-09-30T09:27:41.146Z,95672.9
2018-09-30T09:28:43.572Z,95674
2018-09-30T09:29:46.011Z,95675.9
2018-09-30T09:30:48.451Z,95666.3
2018-09-30T09:31:51.278Z,95671
2018-09-30T09:32:53.791Z,95669.2
2018-09-30T09:33:56.313Z,95668
2018-09-30T09:34:58.854Z,95666.2
2018-09-30T09:36:00.780Z,95669.6
2018-09-30T09:37:03.228Z,95667.3
2018-09-30T09:38:05.109Z,95661.8
2018-09-30T09:39:07.542Z,95658.5
2018-09-30T09:40:09.975Z,95663.9
2018-09-30T09:41:12.413Z,95663
2018-09-30T09:42:14.312Z,95664.9
2018-09-30T09:43:16.477Z,95660.6
2018-09-30T09:44:18.934Z,95661
2018-09-30T09:45:21.368Z,95660.3
2018-09-30T09:46:23.531Z,95662.3
2018-09-30T09:47:25.957Z,95657.5
2018-09-30T09:48:28.168Z,95658.9
2018-09-30T09:49:30.594Z,95654.1
2018-09-30T09:50:32.464Z,95650.9
2018-09-30T09:51:34.898Z,95654.5
2018-09-30T09:52:37.273Z,95653
2018-09-30T09:53:39.877Z,95650.8
2018-09-30T09:54:42.399Z,95653
2018-09-30T09:55:44.554Z,95657.4
2018-09-30T09:56:46.419Z,95653.3
2018-09-30T09:57:48.859Z,95652.9
2018-09-30T09:58:51.299Z,95650.7
2018-09-30T09:59:53.541Z,95651.7
2018-09-30T10:00:55.693Z,95646.7
2018-09-30T10:01:57.852Z,95641.7
2018-09-30T10:03:00.012Z,95642.6
2018-09-30T10:04:02.427Z,95641.4
2018-09-30T10:05:05.159Z,95637.4
2018-09-30T10:06:07.733Z,95640.7
2018-09-30T10:07:09.887Z,95640.8
2018-09-30T10:08:12.691Z,95639.2
2018-09-30T10:09:14.902Z,95642.4
2018-09-30T10:10:17.072Z,95639.7
2018-09-30T10:11:19.233Z,95640.5
2018-09-30T10:12:21.396Z,95638.5
2018-09-30T10:13:24.125Z,95640
2018-09-30T10:14:26.574Z,95638.2
2018-09-30T10:15:29.012Z,95638.7
2018-09-30T10:16:31.439Z,95636.7
2018-09-30T10:17:33.875Z,95633.3
2018-09-30T10:18:36.308Z,95632.7
2018-09-30T10:19:38.870Z,95629.9
2018-09-30T10:20:41.248Z,95628
2018-09-30T10:21:43.692Z,95630.8
2018-09-30T10:22:46.114Z,95625
2018-09-30T10:23:48.546Z,95624.8
2018-09-30T10:24:50.976Z,95623.6
2018-09-30T10:25:53.142Z,95624.5
2018-09-30T10:26:55.766Z,95623.1
2018-09-30T10:27:58.214Z,95625
2018-09-30T10:29:00.350Z,95619.2
2018-09-30T10:30:02.507Z,95620.7
2018-09-30T10:31:04.962Z,95620.1
2018-09-30T10:32:07.379Z,95620.4
2018-09-30T10:33:09.816Z,95614.5
2018-09-30T10:34:12.254Z,95616.6
2018-09-30T10:35:14.693Z,95615.7
2018-09-30T10:36:17.129Z,95608.7
2018-09-30T10:37:19.556Z,95609.5
2018-09-30T10:38:22.622Z,95609.5
2018-09-30T10:39:25.672Z,95608.1
2018-09-30T10:40:27.570Z,95606.7
2018-09-30T10:41:30.011Z,95603.8
2018-09-30T10:42:32.451Z,95606.4
2018-09-30T10:43:34.885Z,95599.5
2018-09-30T10:44:37.332Z,95595
2018-09-30T10:45:39.487Z,95598.4
2018-09-30T10:46:41.651Z,95593.1
2018-09-30T10:47:43.827Z,95589.9
2018-09-30T10:48:46.267Z,95594
2018-09-30T10:49:48.426Z,95591.5
2018-09-30T10:50:50.857Z,95590.1
2018-09-30T10:51:53.298Z,95583.6
2018-09-30T10:52:55.732Z,95584.8
2018-09-30T10:53:57.878Z,95585
2018-09-30T10:55:00.320Z,95578.5
2018-09-30T10:56:02.482Z,95576.8
2018-09-30T10:57:04.657Z,95572
2018-09-30T10:58:07.088Z,95571.1
2018-09-30T10:59:09.512Z,95573.8
2018-09-30T11:00:11.939Z,95571.2
2018-09-30T11:01:14.384Z,95564
2018-09-30T11:02:16.542Z,95567.4
2018-09-30T11:03:18.519Z,95567.4
2018-09-30T11:04:20.707Z,95564
2018-09-30T11:05:23.144Z,95561.8
2018-09-30T11:06:25.649Z,95563.7
2018-09-30T11:07:28.163Z,95560.2
2018-09-30T11:08:30.390Z,95557.5
2018-09-30T11:09:32.981Z,95555.9
2018-09-30T11:10:35.434Z,95557.5
2018-09-30T11:11:37.872Z,95554.9
2018-09-30T11:12:40.313Z,95551.3
2018-09-30T11:13:42.764Z,95551.8
2018-09-30T11:14:44.931Z,95551.2
2018-09-30T11:15:47.371Z,95552.5
2018-09-30T11:16:49.539Z,95547.6
2018-09-30T11:17:51.974Z,95547.9
2018-09-30T11:18:54.118Z,95545.3
2018-09-30T11:19:56.560Z,95550
2018-09-30T11:20:58.990Z,95545.4
2018-09-30T11:22:01.421Z,95544.4
2018-09-30T11:23:03.307Z,95545.4
2018-09-30T11:24:05.461Z,95540.8
2018-09-30T11:25:07.376Z,95539
2018-09-30T11:26:09.564Z,95540.8
2018-09-30T11:27:11.992Z,95542.6
2018-09-30T11:28:14.438Z,95540.2
2018-09-30T11:29:16.593Z,95537.8
2018-09-30T11:30:19.028Z,95535.1
2018-09-30T11:31:21.459Z,95534.6
2018-09-30T11:32:23.908Z,95528.5
2018-09-30T11:33:26.343Z,95530.8
2018-09-30T11:34:28.517Z,95529.2
2018-09-30T11:35:30.947Z,95527.7
2018-09-30T11:36:33.396Z,95524.9
2018-09-30T11:37:35.838Z,95524.4
2018-09-30T11:38:38.277Z,95528.6
2018-09-30T11:39:40.457Z,95524.5
2018-09-30T11:40:42.889Z,95522
2018-09-30T11:41:45.332Z,95521.1
2018-09-30T11:42:47.861Z,95523
2018-09-30T11:43:50.135Z,95523.3
2018-09-30T11:44:52.564Z,95520.4
2018-09-30T11:45:54.744Z,95519.7
2018-09-30T11:46:57.172Z,95520.1
2018-09-30T11:47:59.331Z,95518.8
2018-09-30T11:49:01.765Z,95513.8
2018-09-30T11:50:04.203Z,95511.3
2018-09-30T11:51:06.635Z,95506.5
2018-09-30T11:52:08.798Z,95507.7
2018-09-30T11:53:10.986Z,95507.3
2018-09-30T11:54:12.952Z,95507.5
2018-09-30T11:55:15.435Z,95502.4
2018-09-30T11:56:17.887Z,95507.8
2018-09-30T11:57:20.361Z,95503.6
2018-09-30T11:58:22.801Z,95497.7
2018-09-30T11:59:25.255Z,95497.6
2018-09-30T12:00:27.435Z,95489.9
2018-09-30T12:01:29.873Z,95494.9
2018-09-30T12:02:32.314Z,95485.2
2018-09-30T12:03:34.760Z,95487.8
2018-09-30T12:04:36.644Z,95479.5
2018-09-30T12:05:39.151Z,95484.7
2018-09-30T12:06:41.458Z,95477.6
2018-09-30T12:07:44.121Z,95475.3
2018-09-30T12:08:46.280Z,95476.1
2018-09-30T12:09:48.722Z,95473.6
2018-09-30T12:10:50.896Z,95466.1
2018-09-30T12:11:53.333Z,95461.9
2018-09-30T12:12:55.781Z,95463
2018-09-30T12:13:58.228Z,95456.7
2018-09-30T12:15:00.682Z,95460.4
2018-09-30T12:16:02.839Z,95457.5
2018-09-30T12:17:05.319Z,95457.6
2018-09-30T12:18:07.749Z,95455.8
2018-09-30T12:19:10.210Z,95451.2
2018-09-30T12:20:12.641Z,95452.4
2018-09-30T12:21:15.091Z,95449.5
2018-09-30T12:22:17.255Z,95452.9
2018-09-30T12:23:19.431Z,95449.8
2018-09-30T12:24:21.909Z,95451.8
2018-09-30T12:25:24.354Z,95447.4
2018-09-30T12:26:26.797Z,95444.8
2018-09-30T12:27:28.731Z,95446.5
2018-09-30T12:28:31.160Z,95441.1
2018-09-30T12:29:33.597Z,95443.6
2018-09-30T12:30:35.761Z,95441.1
2018-09-30T12:31:38.211Z,95438.1
2018-09-30T12:32:40.643Z,95437.1
2018-09-30T12:33:43.075Z,95433.3
2018-09-30T12:34:45.522Z,95433.9
2018-09-30T12:35:47.961Z,95434.9
2018-09-30T12:36:50.384Z,95430.7
2018-09-30T12:37:52.823Z,95430.7
2018-09-30T12:38:54.989Z,95430.5